Bettles, Bettles Airport (PABT)

NameBettles Airport
CityBettles
CountryUnited States
ICAOPABT
IATABTT
Altitude197 m
CoordinatesGoogle Map
Live Air TrafficLiveATC.net
METARPABT 171153Z 36006KT 10SM FEW200 06/M01 A3047 RMK AO2 SLP329 70060 T00611011 10089 20050 51034 $
2019-08-17 11:53:00 Wind: North (360°) 3.09 m/s - Visibility: 16093.4 m - Temperature: 6 °C - Dew point: -1 °C - Humidity: 61.2% - Pressure: 1031.83 hPa

Sorry, no flights used the airport in this database.